Time;durP1;ratioP1;P1;durP2;ratioP2;P2;SDS_P1;SDS_P2;PMS_P1;PMS_P2;Temp;Humidity;BMP_temperature;BMP_pressure;BME280_temperature;BME280_humidity;BME280_pressure;Samples;Min_cycle;Max_cycle;Signal;HPM_P1;HPM_P2
2022/10/25 00:01:29;;;;;;;4.80;2.13;;;;;;;;;;5074374;28;20290;-85
2022/10/25 00:03:58;;;;;;;3.50;2.03;;;;;;;;;;5074590;28;20210;-85
2022/10/25 00:06:27;;;;;;;5.57;1.67;;;;;;;;;;5057899;28;20260;-85
2022/10/25 00:08:55;;;;;;;5.80;1.17;;;;;;;;;;5092812;28;20220;-85
2022/10/25 00:11:24;;;;;;;4.27;1.20;;;;;;;;;;5066562;28;20287;-85
2022/10/25 00:13:56;;;;;;;2.27;1.60;;;;;;;;;;5075558;28;20232;-85
2022/10/25 00:16:25;;;;;;;8.93;2.80;;;;;;;;;;5077772;28;20238;-85
2022/10/25 00:18:53;;;;;;;3.57;1.67;;;;;;;;;;5077158;28;20214;-85
2022/10/25 00:21:22;;;;;;;10.67;2.93;;;;;;;;;;5095004;28;20223;-85
2022/10/25 00:23:51;;;;;;;3.20;1.40;;;;;;;;;;5073868;28;20204;-85
2022/10/25 00:26:20;;;;;;;9.27;2.13;;;;;;;;;;5077035;28;20287;-85
2022/10/25 00:28:49;;;;;;;4.40;1.90;;;;;;;;;;5064732;28;20292;-85
2022/10/25 00:31:18;;;;;;;5.53;2.40;;;;;;;;;;5076645;28;20203;-85
2022/10/25 00:33:47;;;;;;;8.70;3.27;;;;;;;;;;5075107;28;20211;-85
2022/10/25 00:36:16;;;;;;;6.47;2.97;;;;;;;;;;5076664;28;20287;-85
2022/10/25 00:38:45;;;;;;;9.03;3.03;;;;;;;;;;5073716;28;20262;-85
2022/10/25 00:41:14;;;;;;;4.23;2.63;;;;;;;;;;5076065;28;20205;-85
2022/10/25 00:43:43;;;;;;;4.43;1.10;;;;;;;;;;5076793;28;20295;-85
2022/10/25 00:46:14;;;;;;;13.37;4.40;;;;;;;;;;5092576;28;20295;-85
2022/10/25 00:48:48;;;;;;;4.23;2.93;;;;;;;;;;5075975;28;20203;-85
2022/10/25 00:51:16;;;;;;;12.23;2.57;;;;;;;;;;5076896;28;20194;-85
2022/10/25 00:53:44;;;;;;;7.73;3.47;;;;;;;;;;5093794;28;20208;-85
2022/10/25 00:56:14;;;;;;;5.53;1.70;;;;;;;;;;5076890;28;20289;-85
2022/10/25 00:58:46;;;;;;;17.50;5.10;;;;;;;;;;5057306;28;20209;-85
2022/10/25 01:01:14;;;;;;;11.07;3.40;;;;;;;;;;5071270;28;20248;-84
2022/10/25 01:03:45;;;;;;;6.90;2.97;;;;;;;;;;5055910;28;20227;-85
2022/10/25 01:06:18;;;;;;;12.57;4.13;;;;;;;;;;5044746;28;20347;-85
2022/10/25 01:08:47;;;;;;;9.53;2.87;;;;;;;;;;5072379;28;20206;-85
2022/10/25 01:11:15;;;;;;;6.73;1.33;;;;;;;;;;5043533;28;20202;-85
2022/10/25 01:13:44;;;;;;;7.00;2.40;;;;;;;;;;5063949;28;20203;-84
2022/10/25 01:16:17;;;;;;;11.93;1.67;;;;;;;;;;5073601;28;20236;-85
2022/10/25 01:18:52;;;;;;;3.63;1.90;;;;;;;;;;5072968;28;20201;-84
2022/10/25 01:21:35;;;;;;;14.03;3.17;;;;;;;;;;5055827;28;20224;-85
2022/10/25 01:24:15;;;;;;;7.73;1.77;;;;;;;;;;5056495;28;20204;-85
2022/10/25 01:26:51;;;;;;;12.63;2.70;;;;;;;;;;5059754;28;20340;-84
2022/10/25 01:29:37;;;;;;;7.03;2.57;;;;;;;;;;5058816;28;20263;-85
2022/10/25 01:32:09;;;;;;;4.90;1.77;;;;;;;;;;5047403;28;20298;-85
2022/10/25 01:34:41;;;;;;;15.30;8.93;;;;;;;;;;5055474;28;20207;-84
2022/10/25 01:37:11;;;;;;;7.93;3.33;;;;;;;;;;5055552;28;20272;-85
2022/10/25 01:39:42;;;;;;;13.67;6.00;;;;;;;;;;5043061;28;20220;-85
2022/10/25 01:42:15;;;;;;;4.30;1.70;;;;;;;;;;5055559;28;20195;-85
2022/10/25 01:44:47;;;;;;;3.63;2.90;;;;;;;;;;5055584;28;20218;-84
2022/10/25 01:47:18;;;;;;;5.20;1.63;;;;;;;;;;5059443;28;20196;-84
2022/10/25 01:49:48;;;;;;;3.97;1.67;;;;;;;;;;5055451;28;20204;-85
2022/10/25 01:52:20;;;;;;;4.87;2.43;;;;;;;;;;5059021;28;20259;-84
2022/10/25 01:54:48;;;;;;;7.90;2.40;;;;;;;;;;5070661;28;20249;-85
2022/10/25 01:57:35;;;;;;;11.53;1.90;;;;;;;;;;5055870;28;20191;-84
2022/10/25 02:00:07;;;;;;;9.57;2.23;;;;;;;;;;5072026;28;20256;-84
2022/10/25 02:05:27;;;;;;;2.10;1.40;;;;;;;;;;5121479;27;20565;-85
2022/10/25 02:08:00;;;;;;;6.10;1.97;;;;;;;;;;5109094;28;20230;-85
2022/10/25 02:10:32;;;;;;;10.27;2.70;;;;;;;;;;5125200;28;20281;-84
2022/10/25 02:13:03;;;;;;;2.30;1.70;;;;;;;;;;5107851;28;20271;-84
2022/10/25 02:15:36;;;;;;;0.83;0.83;;;;;;;;;;5130408;28;20227;-84
2022/10/25 02:18:07;;;;;;;8.53;2.47;;;;;;;;;;5117642;28;20198;-84
2022/10/25 02:20:37;;;;;;;4.23;3.77;;;;;;;;;;5131339;28;20198;-84
2022/10/25 02:23:10;;;;;;;6.13;2.00;;;;;;;;;;5112831;27;20201;-84
2022/10/25 02:25:40;;;;;;;21.53;3.27;;;;;;;;;;5131375;28;20233;-84
2022/10/25 02:28:11;;;;;;;2.43;1.23;;;;;;;;;;5131103;28;20203;-85
2022/10/25 02:30:40;;;;;;;6.97;1.53;;;;;;;;;;5112751;28;20205;-85
2022/10/25 02:33:09;;;;;;;4.73;2.47;;;;;;;;;;5112388;28;20254;-85
2022/10/25 02:35:39;;;;;;;2.40;1.77;;;;;;;;;;5123166;28;20197;-85
2022/10/25 02:38:08;;;;;;;0.77;0.50;;;;;;;;;;5130837;28;20211;-85
2022/10/25 02:40:36;;;;;;;9.80;2.63;;;;;;;;;;5130005;27;20280;-85
2022/10/25 02:43:05;;;;;;;5.93;2.30;;;;;;;;;;5147329;27;20211;-85
2022/10/25 02:45:33;;;;;;;2.20;1.30;;;;;;;;;;5125601;28;20210;-85
2022/10/25 02:48:02;;;;;;;2.30;2.10;;;;;;;;;;5137844;27;20195;-85
2022/10/25 02:50:30;;;;;;;11.50;1.60;;;;;;;;;;5119049;28;20211;-85
2022/10/25 02:53:00;;;;;;;7.70;1.97;;;;;;;;;;5109377;28;20272;-85
2022/10/25 02:55:28;;;;;;;5.23;1.40;;;;;;;;;;5103923;28;20191;-85
2022/10/25 02:57:56;;;;;;;3.10;2.40;;;;;;;;;;5127015;28;20253;-85
2022/10/25 03:00:25;;;;;;;3.83;2.40;;;;;;;;;;5128998;28;20259;-84
2022/10/25 03:02:53;;;;;;;0.60;0.60;;;;;;;;;;5109414;28;20205;-85
2022/10/25 03:05:21;;;;;;;5.93;2.80;;;;;;;;;;5129486;28;20238;-85
2022/10/25 03:07:50;;;;;;;10.60;3.13;;;;;;;;;;5129518;28;20230;-85
2022/10/25 03:10:20;;;;;;;3.13;1.37;;;;;;;;;;5130509;28;20240;-85
2022/10/25 03:12:48;;;;;;;3.37;1.60;;;;;;;;;;5116940;27;20226;-85
2022/10/25 03:15:17;;;;;;;2.13;1.23;;;;;;;;;;5123054;28;20198;-85
2022/10/25 03:17:45;;;;;;;5.37;2.10;;;;;;;;;;5115400;28;20196;-85
2022/10/25 03:20:14;;;;;;;7.43;2.33;;;;;;;;;;5115320;28;20235;-85
2022/10/25 03:22:42;;;;;;;3.73;2.23;;;;;;;;;;5115439;28;20208;-85
2022/10/25 03:25:11;;;;;;;5.83;2.70;;;;;;;;;;5111442;28;20223;-85
2022/10/25 03:27:41;;;;;;;6.63;2.03;;;;;;;;;;5107106;28;20207;-86
2022/10/25 03:30:09;;;;;;;4.33;2.30;;;;;;;;;;5114989;28;20241;-85
2022/10/25 03:32:38;;;;;;;3.63;1.90;;;;;;;;;;5115328;28;20223;-85
2022/10/25 03:35:07;;;;;;;11.13;2.63;;;;;;;;;;5115082;28;20234;-85
2022/10/25 03:37:35;;;;;;;3.03;1.67;;;;;;;;;;5102876;28;20218;-85
2022/10/25 03:40:04;;;;;;;1.03;0.90;;;;;;;;;;5115088;28;20220;-85
2022/10/25 03:42:32;;;;;;;6.47;3.47;;;;;;;;;;5114147;28;20242;-85
2022/10/25 03:45:02;;;;;;;2.83;1.23;;;;;;;;;;5104146;28;20259;-86
2022/10/25 03:47:31;;;;;;;2.17;1.63;;;;;;;;;;5114729;28;20209;-86
2022/10/25 03:49:59;;;;;;;0.40;0.40;;;;;;;;;;5114764;28;20206;-85
2022/10/25 03:52:27;;;;;;;2.57;1.60;;;;;;;;;;5114900;28;20186;-86
2022/10/25 03:54:56;;;;;;;8.60;2.03;;;;;;;;;;5106950;28;20195;-85
2022/10/25 03:57:24;;;;;;;8.90;4.00;;;;;;;;;;5110893;28;20258;-85
2022/10/25 03:59:52;;;;;;;0.70;0.70;;;;;;;;;;5114649;28;20202;-85
2022/10/25 04:02:22;;;;;;;1.90;1.17;;;;;;;;;;5114599;28;20225;-85
2022/10/25 04:04:51;;;;;;;5.40;1.07;;;;;;;;;;5114602;28;20267;-85
2022/10/25 04:07:19;;;;;;;3.73;1.67;;;;;;;;;;5110373;28;20275;-85
2022/10/25 04:09:48;;;;;;;6.57;2.20;;;;;;;;;;5106809;27;20279;-86
2022/10/25 04:12:16;;;;;;;4.00;1.27;;;;;;;;;;5101963;28;20215;-85
2022/10/25 04:14:44;;;;;;;2.73;1.33;;;;;;;;;;5114505;28;20216;-86
2022/10/25 04:17:13;;;;;;;7.57;2.10;;;;;;;;;;5114493;28;20208;-85
2022/10/25 04:19:43;;;;;;;8.00;2.73;;;;;;;;;;5114636;28;20222;-85
2022/10/25 04:22:12;;;;;;;7.20;2.00;;;;;;;;;;5114164;28;20215;-85
2022/10/25 04:24:40;;;;;;;3.13;1.40;;;;;;;;;;5113784;28;20241;-85
2022/10/25 04:27:09;;;;;;;4.27;1.13;;;;;;;;;;5100601;28;20209;-85
2022/10/25 04:29:37;;;;;;;3.70;1.43;;;;;;;;;;5114126;28;20258;-85
2022/10/25 04:32:06;;;;;;;1.07;0.83;;;;;;;;;;5114222;28;20208;-85
2022/10/25 04:34:35;;;;;;;9.07;3.07;;;;;;;;;;5114876;28;20202;-85
2022/10/25 04:37:05;;;;;;;3.57;1.43;;;;;;;;;;5114121;28;20186;-85
2022/10/25 04:39:33;;;;;;;2.90;1.27;;;;;;;;;;5113809;28;20198;-86
2022/10/25 04:42:01;;;;;;;4.17;1.63;;;;;;;;;;5115311;28;20195;-85
2022/10/25 04:44:30;;;;;;;1.37;1.07;;;;;;;;;;5114584;28;20202;-85
2022/10/25 04:46:58;;;;;;;0.80;0.80;;;;;;;;;;5113821;28;20233;-85
2022/10/25 04:49:27;;;;;;;4.60;1.73;;;;;;;;;;5113905;28;20208;-86
2022/10/25 04:51:55;;;;;;;2.07;1.00;;;;;;;;;;5113774;28;20193;-85
2022/10/25 04:54:25;;;;;;;2.20;1.33;;;;;;;;;;5113158;28;20198;-86
2022/10/25 04:56:53;;;;;;;5.17;1.10;;;;;;;;;;5113786;28;20241;-85
2022/10/25 04:59:22;;;;;;;6.43;2.30;;;;;;;;;;5101029;28;20326;-85
2022/10/25 05:01:50;;;;;;;4.97;1.67;;;;;;;;;;5101244;28;20195;-85
2022/10/25 05:04:18;;;;;;;2.33;1.50;;;;;;;;;;5112247;28;20234;-85
2022/10/25 05:06:47;;;;;;;0.90;0.90;;;;;;;;;;5113471;28;20215;-85
2022/10/25 05:09:15;;;;;;;3.33;1.60;;;;;;;;;;5113046;28;20198;-85
2022/10/25 05:11:45;;;;;;;1.97;1.43;;;;;;;;;;5113437;28;20205;-85
2022/10/25 05:14:14;;;;;;;1.43;0.97;;;;;;;;;;5096871;28;20203;-85
2022/10/25 05:16:43;;;;;;;1.20;1.00;;;;;;;;;;5105442;28;20254;-85
2022/10/25 05:19:11;;;;;;;2.57;1.83;;;;;;;;;;5114292;28;20198;-85
2022/10/25 05:21:39;;;;;;;4.13;1.00;;;;;;;;;;5113140;28;20193;-86
2022/10/25 05:24:08;;;;;;;4.90;1.80;;;;;;;;;;5114242;28;20201;-85
2022/10/25 05:26:36;;;;;;;0.50;0.50;;;;;;;;;;5112838;28;20230;-85
2022/10/25 05:29:06;;;;;;;2.93;2.40;;;;;;;;;;5113740;28;20201;-85
2022/10/25 05:31:40;;;;;;;3.33;2.63;;;;;;;;;;5112851;28;20233;-85
2022/10/25 05:34:10;;;;;;;0.80;0.80;;;;;;;;;;5113047;28;20194;-86
2022/10/25 05:36:39;;;;;;;0.40;0.40;;;;;;;;;;5113934;28;20280;-85
2022/10/25 05:39:07;;;;;;;2.17;1.37;;;;;;;;;;5112569;28;20204;-85
2022/10/25 05:41:36;;;;;;;5.30;1.33;;;;;;;;;;5112786;28;20190;-85
2022/10/25 05:44:05;;;;;;;1.70;1.03;;;;;;;;;;5101155;28;20206;-86
2022/10/25 05:46:35;;;;;;;1.13;0.90;;;;;;;;;;5112833;28;20224;-86
2022/10/25 05:49:04;;;;;;;11.87;2.03;;;;;;;;;;5113020;28;20231;-86
2022/10/25 05:51:33;;;;;;;8.67;2.10;;;;;;;;;;5112789;28;20198;-85
2022/10/25 05:54:04;;;;;;;3.60;1.37;;;;;;;;;;5112845;28;20211;-85
2022/10/25 05:56:33;;;;;;;1.20;1.07;;;;;;;;;;5112257;28;20243;-86
2022/10/25 05:59:02;;;;;;;0.40;0.40;;;;;;;;;;5112884;28;20211;-85
2022/10/25 06:01:31;;;;;;;1.33;1.10;;;;;;;;;;5112533;28;20225;-85
2022/10/25 06:04:01;;;;;;;3.33;1.93;;;;;;;;;;5112066;28;20229;-85
2022/10/25 06:06:29;;;;;;;3.37;1.60;;;;;;;;;;5112826;28;20223;-87
2022/10/25 06:08:58;;;;;;;6.53;1.57;;;;;;;;;;5114357;28;20186;-86
2022/10/25 06:11:26;;;;;;;3.23;1.77;;;;;;;;;;5113036;28;20190;-87
2022/10/25 06:13:55;;;;;;;5.77;2.37;;;;;;;;;;5112635;28;20195;-87
2022/10/25 06:16:24;;;;;;;0.90;0.90;;;;;;;;;;5101831;28;20202;-87
2022/10/25 06:18:53;;;;;;;7.30;1.30;;;;;;;;;;5112198;28;20200;-87
2022/10/25 06:21:24;;;;;;;2.47;1.13;;;;;;;;;;5112419;28;20206;-86
2022/10/25 06:23:53;;;;;;;5.67;1.43;;;;;;;;;;5105399;28;20220;-86
2022/10/25 06:26:22;;;;;;;7.27;1.53;;;;;;;;;;5106469;28;20227;-85
2022/10/25 06:28:52;;;;;;;4.83;1.63;;;;;;;;;;5112799;28;20458;-85
2022/10/25 06:31:21;;;;;;;1.53;0.87;;;;;;;;;;5112811;28;20211;-85
2022/10/25 06:33:55;;;;;;;0.63;0.63;;;;;;;;;;5112827;28;20232;-86
2022/10/25 06:36:27;;;;;;;1.33;1.23;;;;;;;;;;5112544;28;20209;-85
2022/10/25 06:38:56;;;;;;;8.97;3.30;;;;;;;;;;5112790;28;20193;-86
2022/10/25 06:41:31;;;;;;;1.77;1.27;;;;;;;;;;5112392;28;20199;-86
2022/10/25 06:44:00;;;;;;;1.27;1.17;;;;;;;;;;5113554;28;20201;-86
2022/10/25 06:46:35;;;;;;;2.30;1.83;;;;;;;;;;5112168;28;20274;-85
2022/10/25 06:49:23;;;;;;;3.90;1.80;;;;;;;;;;5113474;28;20209;-83
2022/10/25 06:51:53;;;;;;;5.23;1.83;;;;;;;;;;5116773;28;20199;-84
2022/10/25 06:54:24;;;;;;;0.97;0.60;;;;;;;;;;5117029;28;20198;-83
2022/10/25 06:56:53;;;;;;;2.90;1.17;;;;;;;;;;5117408;27;20202;-84
2022/10/25 06:59:24;;;;;;;3.50;1.63;;;;;;;;;;5116057;28;20199;-84
2022/10/25 07:01:57;;;;;;;2.90;2.17;;;;;;;;;;5115951;28;20202;-84
2022/10/25 07:04:31;;;;;;;1.23;1.17;;;;;;;;;;5108886;28;20235;-85
2022/10/25 07:07:02;;;;;;;0.83;0.83;;;;;;;;;;5127889;27;20215;-84
2022/10/25 07:09:30;;;;;;;1.50;0.77;;;;;;;;;;5116263;28;20210;-85
2022/10/25 07:12:02;;;;;;;1.87;1.20;;;;;;;;;;5115859;28;20215;-85
2022/10/25 07:14:37;;;;;;;2.90;1.27;;;;;;;;;;5116267;28;20207;-84
2022/10/25 07:17:06;;;;;;;7.73;2.40;;;;;;;;;;5111183;28;20206;-84
2022/10/25 07:19:35;;;;;;;2.07;1.10;;;;;;;;;;5107454;28;20206;-85
2022/10/25 07:22:05;;;;;;;1.60;0.90;;;;;;;;;;5102338;28;20251;-84
2022/10/25 07:24:33;;;;;;;1.13;1.07;;;;;;;;;;5116003;28;20202;-85
2022/10/25 07:27:03;;;;;;;1.10;1.00;;;;;;;;;;5115725;28;20218;-84
2022/10/25 07:29:32;;;;;;;2.43;0.90;;;;;;;;;;5116355;28;20205;-85
2022/10/25 07:32:00;;;;;;;1.13;1.13;;;;;;;;;;5115438;28;20286;-85
2022/10/25 07:34:29;;;;;;;0.50;0.50;;;;;;;;;;5115426;28;20199;-85
2022/10/25 07:36:58;;;;;;;2.17;0.90;;;;;;;;;;5115455;28;20199;-85
2022/10/25 07:39:29;;;;;;;1.90;1.30;;;;;;;;;;5115680;28;20202;-85
2022/10/25 07:41:57;;;;;;;6.10;1.23;;;;;;;;;;5115571;28;20198;-85
2022/10/25 07:44:26;;;;;;;1.60;0.83;;;;;;;;;;5115346;28;20211;-85
2022/10/25 07:46:54;;;;;;;3.13;1.73;;;;;;;;;;5114813;28;20283;-85
2022/10/25 07:49:23;;;;;;;2.80;0.80;;;;;;;;;;5115072;28;20285;-85
2022/10/25 07:51:52;;;;;;;8.40;1.07;;;;;;;;;;5115029;28;20199;-85
2022/10/25 07:54:20;;;;;;;3.63;1.77;;;;;;;;;;5114847;28;20194;-84
2022/10/25 07:56:51;;;;;;;1.27;0.70;;;;;;;;;;5115114;28;20230;-84
2022/10/25 07:59:21;;;;;;;0.60;0.60;;;;;;;;;;5114894;28;20256;-86
2022/10/25 08:01:50;;;;;;;1.33;1.27;;;;;;;;;;5115001;28;20253;-84
2022/10/25 08:04:21;;;;;;;1.03;1.00;;;;;;;;;;5095956;28;20243;-85
2022/10/25 08:06:50;;;;;;;0.40;0.40;;;;;;;;;;5108574;28;20219;-84
2022/10/25 08:09:18;;;;;;;3.50;2.83;;;;;;;;;;5109082;28;20227;-84
2022/10/25 08:12:06;;;;;;;0.40;0.40;;;;;;;;;;5112328;28;20271;-84
2022/10/25 08:14:35;;;;;;;9.80;4.83;;;;;;;;;;5115031;28;20226;-84
2022/10/25 08:17:09;;;;;;;3.27;1.13;;;;;;;;;;5114571;28;20210;-85
2022/10/25 08:19:38;;;;;;;2.40;1.77;;;;;;;;;;5114615;28;20213;-85
2022/10/25 08:22:06;;;;;;;11.60;2.27;;;;;;;;;;5114376;28;20210;-86
2022/10/25 08:24:37;;;;;;;4.53;1.17;;;;;;;;;;5115546;28;20198;-87
2022/10/25 08:27:07;;;;;;;3.73;1.60;;;;;;;;;;5114214;28;20225;-86
2022/10/25 08:29:36;;;;;;;2.77;1.03;;;;;;;;;;5115718;28;20211;-86
2022/10/25 08:32:05;;;;;;;0.73;0.70;;;;;;;;;;5114651;28;20285;-86
2022/10/25 08:34:33;;;;;;;3.93;3.60;;;;;;;;;;5114834;28;20210;-87
2022/10/25 08:37:03;;;;;;;3.83;1.47;;;;;;;;;;5114445;28;20291;-86
2022/10/25 08:39:31;;;;;;;2.80;1.03;;;;;;;;;;5114190;28;20214;-86
2022/10/25 08:42:03;;;;;;;1.17;0.83;;;;;;;;;;5114170;28;20206;-87
2022/10/25 08:44:44;;;;;;;2.70;0.60;;;;;;;;;;5114736;28;20191;-87
2022/10/25 08:47:18;;;;;;;5.20;1.10;;;;;;;;;;5114041;28;20214;-86
2022/10/25 08:49:50;;;;;;;1.97;0.93;;;;;;;;;;5114359;28;20242;-87
2022/10/25 08:52:20;;;;;;;4.03;1.43;;;;;;;;;;5113739;28;20204;-87
2022/10/25 08:54:50;;;;;;;1.40;1.13;;;;;;;;;;5109309;28;20206;-87
2022/10/25 08:57:23;;;;;;;3.83;2.20;;;;;;;;;;5101643;28;20291;-88
2022/10/25 08:59:54;;;;;;;2.63;1.23;;;;;;;;;;5100878;28;20190;-85
2022/10/25 09:02:33;;;;;;;3.70;2.33;;;;;;;;;;5110938;28;20295;-87
2022/10/25 09:05:02;;;;;;;0.50;0.50;;;;;;;;;;5113909;28;20230;-88
2022/10/25 09:07:41;;;;;;;4.03;1.10;;;;;;;;;;5099818;28;20219;-86
2022/10/25 09:10:18;;;;;;;1.03;1.00;;;;;;;;;;5104529;28;20194;-84
2022/10/25 09:12:50;;;;;;;1.33;0.97;;;;;;;;;;5105638;28;20278;-85
2022/10/25 09:15:29;;;;;;;6.70;1.67;;;;;;;;;;5105438;28;20211;-85
2022/10/25 09:17:57;;;;;;;1.97;1.60;;;;;;;;;;5107171;27;20198;-85
2022/10/25 09:20:27;;;;;;;3.73;2.43;;;;;;;;;;5106976;27;20195;-85
2022/10/25 09:22:59;;;;;;;2.00;1.23;;;;;;;;;;5108809;27;20298;-85
2022/10/25 09:25:32;;;;;;;0.63;0.63;;;;;;;;;;5103811;27;20206;-85
2022/10/25 09:28:02;;;;;;;0.50;0.50;;;;;;;;;;5106082;27;20315;-85
2022/10/25 09:30:36;;;;;;;5.47;1.00;;;;;;;;;;5105779;27;20198;-84
2022/10/25 09:33:06;;;;;;;3.07;1.10;;;;;;;;;;5114061;27;20290;-84
2022/10/25 09:35:42;;;;;;;0.90;0.90;;;;;;;;;;5114092;27;20196;-85
2022/10/25 09:38:13;;;;;;;1.13;0.80;;;;;;;;;;5113434;27;20219;-86
2022/10/25 09:40:44;;;;;;;1.17;1.07;;;;;;;;;;5095292;27;20218;-86
2022/10/25 09:43:17;;;;;;;6.97;1.27;;;;;;;;;;5125126;27;20204;-85
2022/10/25 09:45:48;;;;;;;0.93;0.80;;;;;;;;;;5102776;27;20207;-86
2022/10/25 09:48:21;;;;;;;1.07;0.80;;;;;;;;;;5104290;27;20242;-86
2022/10/25 09:50:54;;;;;;;5.37;1.33;;;;;;;;;;5116642;27;20235;-85
2022/10/25 09:53:23;;;;;;;3.00;1.37;;;;;;;;;;5104726;27;20205;-85
2022/10/25 09:55:53;;;;;;;3.90;3.10;;;;;;;;;;5113090;27;20210;-87
2022/10/25 09:58:23;;;;;;;3.33;1.27;;;;;;;;;;5107030;27;20194;-87
2022/10/25 10:00:54;;;;;;;1.23;1.03;;;;;;;;;;5102326;28;20203;-86
2022/10/25 10:03:23;;;;;;;8.60;1.23;;;;;;;;;;5101687;28;20322;-87
2022/10/25 10:05:55;;;;;;;7.50;2.00;;;;;;;;;;5106906;28;20202;-86
2022/10/25 10:08:24;;;;;;;7.37;2.73;;;;;;;;;;5096021;28;20220;-86
2022/10/25 10:10:54;;;;;;;5.73;2.10;;;;;;;;;;5112218;28;20190;-87
2022/10/25 10:13:27;;;;;;;2.27;1.63;;;;;;;;;;5100980;28;20208;-87
2022/10/25 10:16:13;;;;;;;1.40;1.30;;;;;;;;;;5100877;28;20205;-87
2022/10/25 10:18:49;;;;;;;16.47;2.70;;;;;;;;;;5105956;28;20213;-87
2022/10/25 10:21:22;;;;;;;6.60;1.27;;;;;;;;;;5106654;28;20203;-87
2022/10/25 10:23:54;;;;;;;6.83;3.13;;;;;;;;;;5113686;28;20222;-86
2022/10/25 10:26:35;;;;;;;11.57;4.77;;;;;;;;;;5106287;27;20298;-86
2022/10/25 10:29:05;;;;;;;7.23;2.57;;;;;;;;;;5111501;27;20248;-87
2022/10/25 10:31:39;;;;;;;5.37;2.83;;;;;;;;;;5108931;27;20223;-86
2022/10/25 10:34:21;;;;;;;8.10;3.33;;;;;;;;;;5106656;27;20223;-87
2022/10/25 10:37:01;;;;;;;1.93;1.77;;;;;;;;;;5108617;27;20199;-86
2022/10/25 10:39:30;;;;;;;9.43;1.73;;;;;;;;;;5113091;27;20258;-86
2022/10/25 10:42:04;;;;;;;7.30;2.77;;;;;;;;;;5111964;27;20200;-86
2022/10/25 10:44:36;;;;;;;5.73;2.50;;;;;;;;;;5106431;27;20196;-86
2022/10/25 10:47:11;;;;;;;12.03;4.37;;;;;;;;;;5106034;27;20210;-86
2022/10/25 10:49:41;;;;;;;3.77;2.00;;;;;;;;;;5103391;27;20235;-86
2022/10/25 10:52:26;;;;;;;4.23;2.60;;;;;;;;;;5107496;27;20223;-86
2022/10/25 10:54:55;;;;;;;3.87;2.17;;;;;;;;;;5103474;27;20210;-87
2022/10/25 10:57:30;;;;;;;7.20;2.87;;;;;;;;;;5117583;27;20204;-87
2022/10/25 11:00:02;;;;;;;4.37;1.70;;;;;;;;;;5109712;27;20226;-86
2022/10/25 11:02:39;;;;;;;4.87;2.63;;;;;;;;;;5106237;27;20218;-86
2022/10/25 11:05:22;;;;;;;6.43;3.00;;;;;;;;;;5105798;27;20266;-86
2022/10/25 11:07:56;;;;;;;7.30;2.30;;;;;;;;;;5108743;27;20207;-85
2022/10/25 11:10:26;;;;;;;0.83;0.83;;;;;;;;;;5113315;27;20196;-86
2022/10/25 11:13:27;;;;;;;8.70;4.27;;;;;;;;;;5124118;27;20222;-85
2022/10/25 11:16:01;;;;;;;6.33;3.03;;;;;;;;;;5019522;28;20238;-86
2022/10/25 11:18:36;;;;;;;8.70;4.40;;;;;;;;;;5094309;27;20202;-86
2022/10/25 11:21:08;;;;;;;5.20;2.43;;;;;;;;;;5106252;27;20202;-86
2022/10/25 11:23:41;;;;;;;4.20;2.40;;;;;;;;;;5104875;27;20249;-85
2022/10/25 11:26:14;;;;;;;7.77;2.70;;;;;;;;;;5108560;28;20214;-86
2022/10/25 11:28:46;;;;;;;9.33;4.20;;;;;;;;;;5104198;28;20232;-85
2022/10/25 11:31:21;;;;;;;2.87;2.50;;;;;;;;;;5109853;28;20195;-84
2022/10/25 11:33:57;;;;;;;4.93;2.73;;;;;;;;;;5106355;28;20207;-84
2022/10/25 11:36:31;;;;;;;9.90;3.23;;;;;;;;;;5104007;28;20200;-84
2022/10/25 11:39:06;;;;;;;5.50;2.57;;;;;;;;;;5111872;28;20191;-85
2022/10/25 11:41:57;;;;;;;9.57;3.37;;;;;;;;;;5112730;27;20263;-85
2022/10/25 11:44:36;;;;;;;6.87;2.70;;;;;;;;;;5113378;28;20298;-86
2022/10/25 11:47:18;;;;;;;4.93;2.27;;;;;;;;;;5109208;27;20212;-85
2022/10/25 11:50:00;;;;;;;5.13;2.33;;;;;;;;;;5106990;28;20206;-86
2022/10/25 11:52:55;;;;;;;0.50;0.47;;;;;;;;;;5105926;28;20203;-84
2022/10/25 11:55:32;;;;;;;5.00;1.63;;;;;;;;;;5117586;27;20204;-87
2022/10/25 11:58:05;;;;;;;7.73;2.70;;;;;;;;;;5104363;27;20229;-86
2022/10/25 12:00:40;;;;;;;5.00;1.90;;;;;;;;;;5113095;27;20200;-86
2022/10/25 12:03:19;;;;;;;4.27;2.53;;;;;;;;;;5114149;27;20310;-88
2022/10/25 12:05:53;;;;;;;3.20;1.73;;;;;;;;;;5110158;27;20238;-85
2022/10/25 12:08:29;;;;;;;6.83;2.80;;;;;;;;;;5109306;27;20225;-85
2022/10/25 12:11:02;;;;;;;5.97;1.63;;;;;;;;;;5114001;27;20206;-84
2022/10/25 12:13:31;;;;;;;2.27;1.60;;;;;;;;;;5116788;27;20218;-85
2022/10/25 12:16:00;;;;;;;11.37;3.73;;;;;;;;;;5103290;28;20198;-84
2022/10/25 12:18:37;;;;;;;1.60;1.23;;;;;;;;;;5107239;28;20208;-85
2022/10/25 12:21:08;;;;;;;6.37;2.70;;;;;;;;;;5113537;27;20215;-85
2022/10/25 12:23:41;;;;;;;1.90;1.27;;;;;;;;;;5107700;28;20227;-84
2022/10/25 12:26:12;;;;;;;1.03;1.00;;;;;;;;;;5112507;28;20282;-85
2022/10/25 12:28:44;;;;;;;4.67;1.47;;;;;;;;;;5110432;27;20208;-85
2022/10/25 12:31:16;;;;;;;5.70;2.83;;;;;;;;;;5109410;28;20202;-85
2022/10/25 12:34:01;;;;;;;3.83;2.43;;;;;;;;;;5108004;28;20201;-84
2022/10/25 12:36:32;;;;;;;4.00;2.17;;;;;;;;;;5125889;27;20286;-84
2022/10/25 12:39:03;;;;;;;6.43;2.73;;;;;;;;;;5111384;27;20207;-84
2022/10/25 12:41:35;;;;;;;5.50;1.77;;;;;;;;;;5111865;28;20253;-85
2022/10/25 12:44:09;;;;;;;5.80;3.10;;;;;;;;;;5112184;28;20222;-86
2022/10/25 12:46:49;;;;;;;5.70;2.27;;;;;;;;;;5109421;27;20260;-86
2022/10/25 12:49:37;;;;;;;2.63;2.30;;;;;;;;;;5103303;28;20220;-87
2022/10/25 12:52:26;;;;;;;10.97;4.80;;;;;;;;;;5101360;27;20207;-86
2022/10/25 12:55:08;;;;;;;5.23;2.57;;;;;;;;;;5103944;27;20213;-87
2022/10/25 12:57:44;;;;;;;10.80;3.03;;;;;;;;;;5119384;27;20229;-86
2022/10/25 13:00:19;;;;;;;5.17;2.37;;;;;;;;;;5102018;28;20205;-87
2022/10/25 13:03:08;;;;;;;5.53;2.97;;;;;;;;;;5105071;28;20203;-88
2022/10/25 13:06:01;;;;;;;2.83;1.63;;;;;;;;;;5120168;27;20237;-88
2022/10/25 13:08:32;;;;;;;10.20;2.90;;;;;;;;;;5085848;28;20235;-88
2022/10/25 13:11:05;;;;;;;0.83;0.83;;;;;;;;;;5113202;28;20205;-88
2022/10/25 13:13:37;;;;;;;4.33;2.33;;;;;;;;;;5111803;28;20202;-88
2022/10/25 13:16:07;;;;;;;8.73;1.73;;;;;;;;;;5113414;28;20196;-88
2022/10/25 13:18:40;;;;;;;3.60;1.73;;;;;;;;;;5113718;28;20218;-89
2022/10/25 13:21:11;;;;;;;9.60;2.97;;;;;;;;;;5113804;28;20202;-89
2022/10/25 13:24:01;;;;;;;2.63;1.77;;;;;;;;;;5113709;28;20194;-89
2022/10/25 13:26:56;;;;;;;6.17;3.10;;;;;;;;;;5109493;28;20222;-89
2022/10/25 13:29:43;;;;;;;6.13;1.67;;;;;;;;;;5113269;28;20246;-88
2022/10/25 13:32:16;;;;;;;6.30;1.97;;;;;;;;;;5102869;28;20196;-88
2022/10/25 13:34:46;;;;;;;7.80;2.07;;;;;;;;;;5113393;28;20250;-88
2022/10/25 13:37:33;;;;;;;5.40;1.97;;;;;;;;;;5113779;28;20223;-88
2022/10/25 13:40:03;;;;;;;4.60;1.87;;;;;;;;;;5099934;28;20192;-88
2022/10/25 13:42:33;;;;;;;4.87;1.77;;;;;;;;;;5113355;28;20203;-89
2022/10/25 13:45:07;;;;;;;7.07;2.53;;;;;;;;;;5114144;28;20283;-88
2022/10/25 13:47:38;;;;;;;4.83;1.60;;;;;;;;;;5113218;28;20243;-88
2022/10/25 13:50:20;;;;;;;7.70;1.80;;;;;;;;;;5113406;28;20226;-89
2022/10/25 13:52:54;;;;;;;3.00;1.10;;;;;;;;;;5113061;28;20206;-88
2022/10/25 13:55:33;;;;;;;1.90;1.73;;;;;;;;;;5114359;28;20220;-88
2022/10/25 13:58:01;;;;;;;4.87;2.20;;;;;;;;;;5113350;28;20270;-88
2022/10/25 14:00:33;;;;;;;3.73;2.03;;;;;;;;;;5112771;28;20199;-88
2022/10/25 14:03:16;;;;;;;1.70;1.10;;;;;;;;;;5113000;28;20269;-88
2022/10/25 14:06:12;;;;;;;8.33;2.27;;;;;;;;;;5110561;28;20222;-88
2022/10/25 14:08:50;;;;;;;3.93;1.63;;;;;;;;;;5079424;28;20230;-87
2022/10/25 14:11:20;;;;;;;3.07;2.30;;;;;;;;;;5113106;28;20287;-88
2022/10/25 14:13:52;;;;;;;5.50;2.10;;;;;;;;;;5112874;28;20199;-87
2022/10/25 14:16:25;;;;;;;4.93;2.47;;;;;;;;;;5112992;28;20230;-87
2022/10/25 14:18:54;;;;;;;0.60;0.60;;;;;;;;;;5113013;28;20204;-88
2022/10/25 14:21:24;;;;;;;2.20;1.60;;;;;;;;;;5112830;28;20220;-86
2022/10/25 14:23:55;;;;;;;3.13;2.03;;;;;;;;;;5100387;28;20302;-87
2022/10/25 14:26:24;;;;;;;5.07;2.00;;;;;;;;;;5099788;28;20217;-87
2022/10/25 14:28:52;;;;;;;3.00;1.60;;;;;;;;;;5113696;28;20222;-91
2022/10/25 14:31:22;;;;;;;3.50;1.33;;;;;;;;;;5113549;28;20241;-91
2022/10/25 14:33:51;;;;;;;2.90;1.47;;;;;;;;;;5113835;28;20207;-88
2022/10/25 14:36:27;;;;;;;0.93;0.93;;;;;;;;;;5113422;28;20202;-88
2022/10/25 14:38:58;;;;;;;4.03;1.53;;;;;;;;;;5113856;28;20196;-89
2022/10/25 14:41:27;;;;;;;3.70;1.57;;;;;;;;;;5113755;28;20370;-89
2022/10/25 14:43:56;;;;;;;6.63;2.17;;;;;;;;;;5113799;28;20207;-89
2022/10/25 14:46:25;;;;;;;4.93;1.93;;;;;;;;;;5113968;28;20212;-89
2022/10/25 14:48:54;;;;;;;4.10;1.87;;;;;;;;;;5113146;28;20203;-88
2022/10/25 14:51:29;;;;;;;5.00;1.43;;;;;;;;;;5100702;28;20227;-89
2022/10/25 14:54:00;;;;;;;1.00;0.70;;;;;;;;;;5112713;28;20202;-90
2022/10/25 14:56:30;;;;;;;2.43;1.33;;;;;;;;;;5101168;28;20199;-90
2022/10/25 14:58:59;;;;;;;2.87;1.03;;;;;;;;;;5112720;28;20196;-89
2022/10/25 15:01:28;;;;;;;2.60;1.30;;;;;;;;;;5113927;28;20205;-89
2022/10/25 15:03:58;;;;;;;3.40;1.43;;;;;;;;;;5112679;28;20216;-90
2022/10/25 15:06:28;;;;;;;2.27;1.60;;;;;;;;;;5112570;28;20208;-89
2022/10/25 15:08:59;;;;;;;9.30;1.57;;;;;;;;;;5114471;28;20222;-89
2022/10/25 15:12:09;;;;;;;2.47;1.33;;;;;;;;;;5116154;28;20258;-89
2022/10/25 15:14:37;;;;;;;5.60;1.50;;;;;;;;;;5119301;28;20254;-92